Search for airport 
image banner adimage banner ad
image banner ad

SDYX - Campo Maior Airport

Situé à Campo Maior, Brazil

ICAO - SDYX, IATA -

Données fournies par Airmate  

Information générale

Coordonnées: S4°51'15" W42°15'38"
Élévation : 488 feet MSL.
Variation magnétique : -21° East
Voir autres Aéroports à Piauí

Données opérationnelles

Special qualification required
Heure actuelle UTC:
Heure actuelle locale:
METAR: SBTE 011900Z 18010KT 9999 -RA FEW008 OVC100 24/23 Q1004
TAF: TAF SBTE 011520Z 0118/0206 10013KT 7000 BKN017 FEW030TCU TX31/0118Z TN23/0206Z TEMPO 0118/0123 4000 TSRA SCT010 BKN015 FEW025CB BECMG 0123/0201 34007KT 8000 SCT017 PROB40 TEMPO 0201/0204 6000 TSRA BKN017 FEW025CB RMK PHN
Voir NOTAMs / SUP AIP / TFR affectant cet aéroport [VIEW]
Fréquences de communication: [VIEW]

Pistes:

Identifiant RWYQFULongueur (ft)Largeur (ft)SurfaceLDA (ft)
13393759ASPH
31393759ASPH

Coordonnées de l'aéroport

Adresse: Campo Maior Brazil

Vue satellite de SDYX